sensor_id;sensor_type;location;lat;lon;timestamp;P1;durP1;ratioP1;P2;durP2;ratioP2
17065;SDS011;23120;52.336;21.182;2022-07-22T00:01:32;9.93;;;8.80;;
17065;SDS011;23120;52.336;21.182;2022-07-22T00:03:59;11.10;;;8.38;;
17065;SDS011;23120;52.336;21.182;2022-07-22T00:06:27;11.85;;;8.18;;
17065;SDS011;23120;52.336;21.182;2022-07-22T00:08:55;8.80;;;7.93;;
17065;SDS011;23120;52.336;21.182;2022-07-22T00:11:22;9.23;;;8.27;;
17065;SDS011;23120;52.336;21.182;2022-07-22T00:13:49;8.70;;;7.75;;
17065;SDS011;23120;52.336;21.182;2022-07-22T00:16:16;8.23;;;7.50;;
17065;SDS011;23120;52.336;21.182;2022-07-22T00:18:43;8.63;;;7.72;;
17065;SDS011;23120;52.336;21.182;2022-07-22T00:21:10;8.45;;;7.57;;
17065;SDS011;23120;52.336;21.182;2022-07-22T00:23:37;8.55;;;7.72;;
17065;SDS011;23120;52.336;21.182;2022-07-22T00:26:05;9.98;;;7.93;;
17065;SDS011;23120;52.336;21.182;2022-07-22T00:28:32;8.60;;;7.80;;
17065;SDS011;23120;52.336;21.182;2022-07-22T00:30:59;9.25;;;7.55;;
17065;SDS011;23120;52.336;21.182;2022-07-22T00:33:26;8.30;;;7.50;;
17065;SDS011;23120;52.336;21.182;2022-07-22T00:35:53;8.43;;;7.63;;
17065;SDS011;23120;52.336;21.182;2022-07-22T00:38:20;7.78;;;6.97;;
17065;SDS011;23120;52.336;21.182;2022-07-22T00:40:47;8.25;;;7.45;;
17065;SDS011;23120;52.336;21.182;2022-07-22T00:43:15;8.05;;;7.15;;
17065;SDS011;23120;52.336;21.182;2022-07-22T00:45:42;8.85;;;6.93;;
17065;SDS011;23120;52.336;21.182;2022-07-22T00:48:09;8.98;;;7.70;;
17065;SDS011;23120;52.336;21.182;2022-07-22T00:50:36;8.07;;;7.32;;
17065;SDS011;23120;52.336;21.182;2022-07-22T00:53:02;8.75;;;7.90;;
17065;SDS011;23120;52.336;21.182;2022-07-22T00:55:29;10.07;;;8.18;;
17065;SDS011;23120;52.336;21.182;2022-07-22T00:57:59;8.35;;;7.60;;
17065;SDS011;23120;52.336;21.182;2022-07-22T01:00:28;8.65;;;7.53;;
17065;SDS011;23120;52.336;21.182;2022-07-22T01:02:55;8.45;;;7.47;;
17065;SDS011;23120;52.336;21.182;2022-07-22T01:05:22;10.02;;;8.05;;
17065;SDS011;23120;52.336;21.182;2022-07-22T01:07:49;11.55;;;7.75;;
17065;SDS011;23120;52.336;21.182;2022-07-22T01:10:15;8.90;;;8.10;;
17065;SDS011;23120;52.336;21.182;2022-07-22T01:12:42;9.85;;;7.88;;
17065;SDS011;23120;52.336;21.182;2022-07-22T01:15:09;10.32;;;8.05;;
17065;SDS011;23120;52.336;21.182;2022-07-22T01:17:38;8.27;;;7.38;;
17065;SDS011;23120;52.336;21.182;2022-07-22T01:20:06;8.90;;;8.00;;
17065;SDS011;23120;52.336;21.182;2022-07-22T01:22:34;9.43;;;8.02;;
17065;SDS011;23120;52.336;21.182;2022-07-22T01:25:02;8.98;;;8.07;;
17065;SDS011;23120;52.336;21.182;2022-07-22T01:27:29;9.25;;;7.47;;
17065;SDS011;23120;52.336;21.182;2022-07-22T01:29:56;11.23;;;8.25;;
17065;SDS011;23120;52.336;21.182;2022-07-22T01:32:23;10.13;;;7.93;;
17065;SDS011;23120;52.336;21.182;2022-07-22T01:34:50;9.80;;;8.20;;
17065;SDS011;23120;52.336;21.182;2022-07-22T01:37:19;10.27;;;8.95;;
17065;SDS011;23120;52.336;21.182;2022-07-22T01:39:45;8.93;;;7.95;;
17065;SDS011;23120;52.336;21.182;2022-07-22T01:42:13;10.32;;;8.23;;
17065;SDS011;23120;52.336;21.182;2022-07-22T01:44:41;8.00;;;7.27;;
17065;SDS011;23120;52.336;21.182;2022-07-22T01:47:08;10.98;;;7.80;;
17065;SDS011;23120;52.336;21.182;2022-07-22T01:49:36;10.32;;;7.95;;
17065;SDS011;23120;52.336;21.182;2022-07-22T01:52:03;9.13;;;8.20;;
17065;SDS011;23120;52.336;21.182;2022-07-22T01:54:32;9.20;;;7.88;;
17065;SDS011;23120;52.336;21.182;2022-07-22T01:56:59;10.45;;;7.93;;
17065;SDS011;23120;52.336;21.182;2022-07-22T01:59:26;8.80;;;7.85;;
17065;SDS011;23120;52.336;21.182;2022-07-22T02:01:53;9.70;;;8.35;;
17065;SDS011;23120;52.336;21.182;2022-07-22T02:04:20;8.93;;;8.02;;
17065;SDS011;23120;52.336;21.182;2022-07-22T02:06:47;9.57;;;8.50;;
17065;SDS011;23120;52.336;21.182;2022-07-22T02:09:15;9.95;;;8.75;;
17065;SDS011;23120;52.336;21.182;2022-07-22T02:11:46;9.45;;;8.13;;
17065;SDS011;23120;52.336;21.182;2022-07-22T02:14:14;9.18;;;8.32;;
17065;SDS011;23120;52.336;21.182;2022-07-22T02:16:42;10.30;;;8.32;;
17065;SDS011;23120;52.336;21.182;2022-07-22T02:19:10;8.88;;;8.00;;
17065;SDS011;23120;52.336;21.182;2022-07-22T02:21:37;10.60;;;8.15;;
17065;SDS011;23120;52.336;21.182;2022-07-22T02:24:04;8.48;;;7.70;;
17065;SDS011;23120;52.336;21.182;2022-07-22T02:26:31;8.40;;;7.63;;
17065;SDS011;23120;52.336;21.182;2022-07-22T02:29:00;10.00;;;7.80;;
17065;SDS011;23120;52.336;21.182;2022-07-22T02:31:27;8.73;;;7.93;;
17065;SDS011;23120;52.336;21.182;2022-07-22T02:33:53;9.82;;;8.10;;
17065;SDS011;23120;52.336;21.182;2022-07-22T02:36:22;8.05;;;7.30;;
17065;SDS011;23120;52.336;21.182;2022-07-22T02:38:49;11.60;;;7.90;;
17065;SDS011;23120;52.336;21.182;2022-07-22T02:41:16;9.27;;;7.57;;
17065;SDS011;23120;52.336;21.182;2022-07-22T02:43:51;9.70;;;8.15;;
17065;SDS011;23120;52.336;21.182;2022-07-22T02:46:20;11.10;;;8.13;;
17065;SDS011;23120;52.336;21.182;2022-07-22T02:48:47;8.85;;;7.95;;
17065;SDS011;23120;52.336;21.182;2022-07-22T02:51:16;8.98;;;8.07;;
17065;SDS011;23120;52.336;21.182;2022-07-22T02:53:44;8.50;;;7.80;;
17065;SDS011;23120;52.336;21.182;2022-07-22T02:56:11;9.90;;;8.35;;
17065;SDS011;23120;52.336;21.182;2022-07-22T02:58:38;8.85;;;7.95;;
17065;SDS011;23120;52.336;21.182;2022-07-22T03:01:05;13.63;;;8.40;;
17065;SDS011;23120;52.336;21.182;2022-07-22T03:03:43;9.57;;;8.73;;
17065;SDS011;23120;52.336;21.182;2022-07-22T03:06:10;9.87;;;8.87;;
17065;SDS011;23120;52.336;21.182;2022-07-22T03:08:42;12.63;;;11.07;;
17065;SDS011;23120;52.336;21.182;2022-07-22T03:11:11;11.98;;;10.30;;
17065;SDS011;23120;52.336;21.182;2022-07-22T03:13:37;13.20;;;11.32;;
17065;SDS011;23120;52.336;21.182;2022-07-22T03:16:04;14.45;;;12.07;;
17065;SDS011;23120;52.336;21.182;2022-07-22T03:18:31;18.83;;;12.25;;
17065;SDS011;23120;52.336;21.182;2022-07-22T03:20:59;16.23;;;12.73;;
17065;SDS011;23120;52.336;21.182;2022-07-22T03:23:26;18.33;;;15.03;;
17065;SDS011;23120;52.336;21.182;2022-07-22T03:25:54;20.83;;;15.32;;
17065;SDS011;23120;52.336;21.182;2022-07-22T03:28:21;22.52;;;16.50;;
17065;SDS011;23120;52.336;21.182;2022-07-22T03:30:51;18.13;;;15.65;;
17065;SDS011;23120;52.336;21.182;2022-07-22T03:33:18;21.25;;;17.95;;
17065;SDS011;23120;52.336;21.182;2022-07-22T03:35:44;21.25;;;18.15;;
17065;SDS011;23120;52.336;21.182;2022-07-22T03:38:14;21.48;;;17.38;;
17065;SDS011;23120;52.336;21.182;2022-07-22T03:40:42;23.33;;;17.85;;
17065;SDS011;23120;52.336;21.182;2022-07-22T03:43:08;22.25;;;17.85;;
17065;SDS011;23120;52.336;21.182;2022-07-22T03:45:37;20.67;;;17.30;;
17065;SDS011;23120;52.336;21.182;2022-07-22T03:48:04;23.00;;;19.08;;
17065;SDS011;23120;52.336;21.182;2022-07-22T03:50:35;23.80;;;18.60;;
17065;SDS011;23120;52.336;21.182;2022-07-22T03:53:03;25.63;;;18.60;;
17065;SDS011;23120;52.336;21.182;2022-07-22T03:55:33;24.77;;;18.75;;
17065;SDS011;23120;52.336;21.182;2022-07-22T03:58:00;20.63;;;18.45;;
17065;SDS011;23120;52.336;21.182;2022-07-22T04:00:29;21.85;;;18.58;;
17065;SDS011;23120;52.336;21.182;2022-07-22T04:02:57;22.88;;;18.05;;
17065;SDS011;23120;52.336;21.182;2022-07-22T04:05:34;24.50;;;18.10;;
17065;SDS011;23120;52.336;21.182;2022-07-22T04:08:01;22.35;;;17.40;;
17065;SDS011;23120;52.336;21.182;2022-07-22T04:10:29;20.55;;;16.75;;
17065;SDS011;23120;52.336;21.182;2022-07-22T04:12:58;19.00;;;16.48;;
17065;SDS011;23120;52.336;21.182;2022-07-22T04:15:35;18.27;;;15.38;;
17065;SDS011;23120;52.336;21.182;2022-07-22T04:18:01;19.08;;;16.10;;
17065;SDS011;23120;52.336;21.182;2022-07-22T04:20:29;16.50;;;14.38;;
17065;SDS011;23120;52.336;21.182;2022-07-22T04:23:14;18.63;;;15.02;;
17065;SDS011;23120;52.336;21.182;2022-07-22T04:25:42;17.58;;;14.00;;
17065;SDS011;23120;52.336;21.182;2022-07-22T04:28:11;16.13;;;13.68;;
17065;SDS011;23120;52.336;21.182;2022-07-22T04:30:40;14.82;;;13.35;;
17065;SDS011;23120;52.336;21.182;2022-07-22T04:33:07;18.45;;;13.00;;
17065;SDS011;23120;52.336;21.182;2022-07-22T04:35:34;14.90;;;13.38;;
17065;SDS011;23120;52.336;21.182;2022-07-22T04:38:15;13.77;;;12.35;;
17065;SDS011;23120;52.336;21.182;2022-07-22T04:40:50;13.30;;;11.90;;
17065;SDS011;23120;52.336;21.182;2022-07-22T04:43:18;14.52;;;12.77;;
17065;SDS011;23120;52.336;21.182;2022-07-22T04:45:45;11.77;;;10.77;;
17065;SDS011;23120;52.336;21.182;2022-07-22T04:48:12;13.20;;;11.82;;
17065;SDS011;23120;52.336;21.182;2022-07-22T04:50:39;16.50;;;11.10;;
17065;SDS011;23120;52.336;21.182;2022-07-22T04:53:05;14.77;;;11.00;;
17065;SDS011;23120;52.336;21.182;2022-07-22T04:55:33;12.13;;;10.88;;
17065;SDS011;23120;52.336;21.182;2022-07-22T04:58:00;12.10;;;10.73;;
17065;SDS011;23120;52.336;21.182;2022-07-22T05:00:29;11.75;;;10.20;;
17065;SDS011;23120;52.336;21.182;2022-07-22T05:02:56;11.77;;;9.82;;
17065;SDS011;23120;52.336;21.182;2022-07-22T05:05:24;12.55;;;10.38;;
17065;SDS011;23120;52.336;21.182;2022-07-22T05:07:51;11.23;;;9.95;;
17065;SDS011;23120;52.336;21.182;2022-07-22T05:10:18;11.10;;;9.90;;
17065;SDS011;23120;52.336;21.182;2022-07-22T05:12:45;13.80;;;11.00;;
17065;SDS011;23120;52.336;21.182;2022-07-22T05:15:12;13.20;;;10.07;;
17065;SDS011;23120;52.336;21.182;2022-07-22T05:17:40;13.33;;;9.73;;
17065;SDS011;23120;52.336;21.182;2022-07-22T05:20:14;12.80;;;9.85;;
17065;SDS011;23120;52.336;21.182;2022-07-22T05:22:41;11.40;;;10.25;;
17065;SDS011;23120;52.336;21.182;2022-07-22T05:25:13;10.52;;;9.45;;
17065;SDS011;23120;52.336;21.182;2022-07-22T05:27:48;12.27;;;9.57;;
17065;SDS011;23120;52.336;21.182;2022-07-22T05:30:17;11.15;;;9.73;;
17065;SDS011;23120;52.336;21.182;2022-07-22T05:32:46;12.07;;;9.50;;
17065;SDS011;23120;52.336;21.182;2022-07-22T05:35:15;9.93;;;8.90;;
17065;SDS011;23120;52.336;21.182;2022-07-22T05:37:42;12.95;;;9.82;;
17065;SDS011;23120;52.336;21.182;2022-07-22T05:40:09;12.10;;;9.55;;
17065;SDS011;23120;52.336;21.182;2022-07-22T05:42:37;11.70;;;8.85;;
17065;SDS011;23120;52.336;21.182;2022-07-22T05:45:04;10.18;;;8.88;;
17065;SDS011;23120;52.336;21.182;2022-07-22T05:47:31;11.18;;;9.23;;
17065;SDS011;23120;52.336;21.182;2022-07-22T05:50:00;12.65;;;8.68;;
17065;SDS011;23120;52.336;21.182;2022-07-22T05:52:27;15.95;;;9.25;;
17065;SDS011;23120;52.336;21.182;2022-07-22T05:54:54;10.82;;;8.77;;
17065;SDS011;23120;52.336;21.182;2022-07-22T05:57:21;11.60;;;9.00;;
17065;SDS011;23120;52.336;21.182;2022-07-22T05:59:48;15.35;;;9.23;;
17065;SDS011;23120;52.336;21.182;2022-07-22T06:02:15;14.65;;;9.15;;
17065;SDS011;23120;52.336;21.182;2022-07-22T06:04:45;10.65;;;8.57;;
17065;SDS011;23120;52.336;21.182;2022-07-22T06:07:15;11.63;;;9.30;;
17065;SDS011;23120;52.336;21.182;2022-07-22T06:09:43;9.63;;;8.60;;
17065;SDS011;23120;52.336;21.182;2022-07-22T06:12:11;9.23;;;8.38;;
17065;SDS011;23120;52.336;21.182;2022-07-22T06:14:38;13.60;;;8.73;;
17065;SDS011;23120;52.336;21.182;2022-07-22T06:17:06;11.15;;;9.20;;
17065;SDS011;23120;52.336;21.182;2022-07-22T06:19:33;11.82;;;8.82;;
17065;SDS011;23120;52.336;21.182;2022-07-22T06:22:00;9.27;;;8.18;;
17065;SDS011;23120;52.336;21.182;2022-07-22T06:24:28;9.30;;;8.00;;
17065;SDS011;23120;52.336;21.182;2022-07-22T06:26:55;12.23;;;8.85;;
17065;SDS011;23120;52.336;21.182;2022-07-22T06:29:22;11.98;;;8.35;;
17065;SDS011;23120;52.336;21.182;2022-07-22T06:31:49;13.23;;;8.40;;
17065;SDS011;23120;52.336;21.182;2022-07-22T06:34:17;14.57;;;8.02;;
17065;SDS011;23120;52.336;21.182;2022-07-22T06:36:55;15.25;;;8.52;;
17065;SDS011;23120;52.336;21.182;2022-07-22T06:39:22;14.50;;;8.93;;
17065;SDS011;23120;52.336;21.182;2022-07-22T06:42:09;12.48;;;8.40;;
17065;SDS011;23120;52.336;21.182;2022-07-22T06:44:54;12.45;;;8.43;;
17065;SDS011;23120;52.336;21.182;2022-07-22T06:47:30;13.02;;;8.75;;
17065;SDS011;23120;52.336;21.182;2022-07-22T06:50:00;13.15;;;8.40;;
17065;SDS011;23120;52.336;21.182;2022-07-22T06:52:28;12.90;;;7.82;;
17065;SDS011;23120;52.336;21.182;2022-07-22T06:54:56;11.07;;;7.97;;
17065;SDS011;23120;52.336;21.182;2022-07-22T06:57:29;11.98;;;8.30;;
17065;SDS011;23120;52.336;21.182;2022-07-22T06:59:56;9.75;;;7.38;;
17065;SDS011;23120;52.336;21.182;2022-07-22T07:02:24;10.95;;;8.20;;
17065;SDS011;23120;52.336;21.182;2022-07-22T07:04:50;8.57;;;7.47;;
17065;SDS011;23120;52.336;21.182;2022-07-22T07:07:17;12.73;;;7.88;;
17065;SDS011;23120;52.336;21.182;2022-07-22T07:09:53;10.18;;;7.28;;
17065;SDS011;23120;52.336;21.182;2022-07-22T07:12:30;9.57;;;7.22;;
17065;SDS011;23120;52.336;21.182;2022-07-22T07:15:12;9.02;;;7.47;;
17065;SDS011;23120;52.336;21.182;2022-07-22T07:17:39;11.75;;;7.20;;
17065;SDS011;23120;52.336;21.182;2022-07-22T07:20:09;10.35;;;6.88;;
17065;SDS011;23120;52.336;21.182;2022-07-22T07:22:36;10.15;;;6.30;;
17065;SDS011;23120;52.336;21.182;2022-07-22T07:25:03;9.88;;;6.85;;
17065;SDS011;23120;52.336;21.182;2022-07-22T07:27:32;9.10;;;6.25;;
17065;SDS011;23120;52.336;21.182;2022-07-22T07:30:01;10.07;;;6.10;;
17065;SDS011;23120;52.336;21.182;2022-07-22T07:32:29;12.32;;;6.85;;
17065;SDS011;23120;52.336;21.182;2022-07-22T07:34:55;10.70;;;5.95;;
17065;SDS011;23120;52.336;21.182;2022-07-22T07:37:22;9.77;;;6.45;;
17065;SDS011;23120;52.336;21.182;2022-07-22T07:39:49;9.65;;;7.07;;
17065;SDS011;23120;52.336;21.182;2022-07-22T07:42:16;8.18;;;6.28;;
17065;SDS011;23120;52.336;21.182;2022-07-22T07:44:44;8.88;;;6.65;;
17065;SDS011;23120;52.336;21.182;2022-07-22T07:47:11;8.95;;;6.10;;
17065;SDS011;23120;52.336;21.182;2022-07-22T07:49:42;9.77;;;6.20;;
17065;SDS011;23120;52.336;21.182;2022-07-22T07:52:09;7.13;;;6.18;;
17065;SDS011;23120;52.336;21.182;2022-07-22T07:54:37;6.43;;;5.57;;
17065;SDS011;23120;52.336;21.182;2022-07-22T07:57:05;7.45;;;5.90;;
17065;SDS011;23120;52.336;21.182;2022-07-22T07:59:32;10.93;;;6.05;;
17065;SDS011;23120;52.336;21.182;2022-07-22T08:02:02;7.38;;;5.80;;
17065;SDS011;23120;52.336;21.182;2022-07-22T08:04:30;6.13;;;5.53;;
17065;SDS011;23120;52.336;21.182;2022-07-22T08:06:57;6.18;;;5.38;;
17065;SDS011;23120;52.336;21.182;2022-07-22T08:09:24;8.30;;;5.85;;
17065;SDS011;23120;52.336;21.182;2022-07-22T08:11:51;7.07;;;5.40;;
17065;SDS011;23120;52.336;21.182;2022-07-22T08:14:35;7.53;;;5.20;;
17065;SDS011;23120;52.336;21.182;2022-07-22T08:17:19;6.53;;;5.57;;
17065;SDS011;23120;52.336;21.182;2022-07-22T08:19:45;9.27;;;5.50;;
17065;SDS011;23120;52.336;21.182;2022-07-22T08:22:12;6.25;;;4.95;;
17065;SDS011;23120;52.336;21.182;2022-07-22T08:24:44;6.22;;;5.43;;
17065;SDS011;23120;52.336;21.182;2022-07-22T08:27:14;5.75;;;5.15;;
17065;SDS011;23120;52.336;21.182;2022-07-22T08:29:41;9.60;;;5.18;;
17065;SDS011;23120;52.336;21.182;2022-07-22T08:32:08;8.90;;;5.60;;
17065;SDS011;23120;52.336;21.182;2022-07-22T08:34:36;9.00;;;5.18;;
17065;SDS011;23120;52.336;21.182;2022-07-22T08:37:04;10.63;;;5.70;;
17065;SDS011;23120;52.336;21.182;2022-07-22T08:39:31;9.90;;;5.53;;
17065;SDS011;23120;52.336;21.182;2022-07-22T08:41:59;5.80;;;5.20;;
17065;SDS011;23120;52.336;21.182;2022-07-22T08:44:28;7.43;;;5.50;;
17065;SDS011;23120;52.336;21.182;2022-07-22T08:46:56;11.15;;;5.30;;
17065;SDS011;23120;52.336;21.182;2022-07-22T08:49:44;5.80;;;5.07;;
17065;SDS011;23120;52.336;21.182;2022-07-22T08:52:25;7.22;;;5.68;;
17065;SDS011;23120;52.336;21.182;2022-07-22T08:54:52;7.00;;;5.25;;
17065;SDS011;23120;52.336;21.182;2022-07-22T08:57:19;6.13;;;5.13;;
17065;SDS011;23120;52.336;21.182;2022-07-22T08:59:49;9.35;;;5.07;;
17065;SDS011;23120;52.336;21.182;2022-07-22T09:02:17;5.43;;;4.82;;
17065;SDS011;23120;52.336;21.182;2022-07-22T09:04:53;9.27;;;5.40;;
17065;SDS011;23120;52.336;21.182;2022-07-22T09:07:25;6.13;;;5.53;;
17065;SDS011;23120;52.336;21.182;2022-07-22T09:09:55;5.88;;;5.28;;
17065;SDS011;23120;52.336;21.182;2022-07-22T09:12:35;12.40;;;5.68;;
17065;SDS011;23120;52.336;21.182;2022-07-22T09:15:36;6.88;;;5.78;;
17065;SDS011;23120;52.336;21.182;2022-07-22T09:20:03;7.75;;;6.47;;
17065;SDS011;23120;52.336;21.182;2022-07-22T09:23:01;14.25;;;6.43;;
17065;SDS011;23120;52.336;21.182;2022-07-22T09:25:34;11.30;;;6.63;;
17065;SDS011;23120;52.336;21.182;2022-07-22T09:28:16;9.20;;;6.15;;
17065;SDS011;23120;52.336;21.182;2022-07-22T09:30:55;12.70;;;7.53;;
17065;SDS011;23120;52.336;21.182;2022-07-22T09:33:22;14.30;;;6.97;;
17065;SDS011;23120;52.336;21.182;2022-07-22T09:36:02;8.50;;;6.68;;
17065;SDS011;23120;52.336;21.182;2022-07-22T09:38:33;8.85;;;6.45;;
17065;SDS011;23120;52.336;21.182;2022-07-22T09:41:00;13.75;;;6.90;;
17065;SDS011;23120;52.336;21.182;2022-07-22T09:43:27;9.43;;;7.38;;
17065;SDS011;23120;52.336;21.182;2022-07-22T09:45:59;8.43;;;7.28;;
17065;SDS011;23120;52.336;21.182;2022-07-22T09:48:46;11.05;;;7.90;;
17065;SDS011;23120;52.336;21.182;2022-07-22T09:51:26;8.88;;;7.97;;
17065;SDS011;23120;52.336;21.182;2022-07-22T09:54:05;13.52;;;8.48;;
17065;SDS011;23120;52.336;21.182;2022-07-22T09:56:34;9.80;;;7.88;;
17065;SDS011;23120;52.336;21.182;2022-07-22T09:59:02;13.20;;;8.40;;
17065;SDS011;23120;52.336;21.182;2022-07-22T10:01:34;88.38;;;16.38;;
17065;SDS011;23120;52.336;21.182;2022-07-22T10:04:02;37.05;;;10.80;;
17065;SDS011;23120;52.336;21.182;2022-07-22T10:06:34;21.52;;;9.27;;
17065;SDS011;23120;52.336;21.182;2022-07-22T10:09:07;24.77;;;9.07;;
17065;SDS011;23120;52.336;21.182;2022-07-22T10:11:36;25.33;;;9.88;;
17065;SDS011;23120;52.336;21.182;2022-07-22T10:14:10;33.03;;;10.43;;
17065;SDS011;23120;52.336;21.182;2022-07-22T10:16:38;48.08;;;12.23;;
17065;SDS011;23120;52.336;21.182;2022-07-22T10:19:05;26.63;;;10.35;;
17065;SDS011;23120;52.336;21.182;2022-07-22T10:21:34;14.25;;;8.98;;
17065;SDS011;23120;52.336;21.182;2022-07-22T10:24:06;11.52;;;8.75;;
17065;SDS011;23120;52.336;21.182;2022-07-22T10:26:45;12.65;;;8.68;;
17065;SDS011;23120;52.336;21.182;2022-07-22T10:29:26;14.25;;;8.38;;
17065;SDS011;23120;52.336;21.182;2022-07-22T10:37:49;14.23;;;8.93;;
17065;SDS011;23120;52.336;21.182;2022-07-22T10:40:21;137.38;;;17.50;;
17065;SDS011;23120;52.336;21.182;2022-07-22T10:43:03;158.18;;;19.52;;
17065;SDS011;23120;52.336;21.182;2022-07-22T10:45:40;96.38;;;15.45;;
17065;SDS011;23120;52.336;21.182;2022-07-22T10:48:12;89.72;;;15.32;;
17065;SDS011;23120;52.336;21.182;2022-07-22T10:50:45;22.45;;;9.90;;
17065;SDS011;23120;52.336;21.182;2022-07-22T10:53:18;15.40;;;9.15;;
17065;SDS011;23120;52.336;21.182;2022-07-22T10:55:57;22.65;;;9.05;;
17065;SDS011;23120;52.336;21.182;2022-07-22T10:58:45;15.43;;;9.80;;
17065;SDS011;23120;52.336;21.182;2022-07-22T11:01:15;10.63;;;9.15;;
17065;SDS011;23120;52.336;21.182;2022-07-22T11:03:44;18.35;;;10.10;;
17065;SDS011;23120;52.336;21.182;2022-07-22T11:06:17;22.00;;;8.70;;
17065;SDS011;23120;52.336;21.182;2022-07-22T11:08:47;35.10;;;9.77;;
17065;SDS011;23120;52.336;21.182;2022-07-22T11:11:15;13.73;;;8.65;;
17065;SDS011;23120;52.336;21.182;2022-07-22T11:13:43;12.82;;;8.85;;
17065;SDS011;23120;52.336;21.182;2022-07-22T11:16:15;10.27;;;8.27;;
17065;SDS011;23120;52.336;21.182;2022-07-22T11:18:50;12.15;;;8.57;;
17065;SDS011;23120;52.336;21.182;2022-07-22T11:21:21;16.50;;;8.82;;
17065;SDS011;23120;52.336;21.182;2022-07-22T11:23:52;11.82;;;8.98;;
17065;SDS011;23120;52.336;21.182;2022-07-22T11:26:24;16.02;;;8.70;;
17065;SDS011;23120;52.336;21.182;2022-07-22T11:28:57;12.07;;;8.45;;
17065;SDS011;23120;52.336;21.182;2022-07-22T11:31:25;13.60;;;9.43;;
17065;SDS011;23120;52.336;21.182;2022-07-22T11:33:56;12.02;;;8.30;;
17065;SDS011;23120;52.336;21.182;2022-07-22T11:36:31;8.90;;;7.97;;
17065;SDS011;23120;52.336;21.182;2022-07-22T11:39:00;14.57;;;9.25;;
17065;SDS011;23120;52.336;21.182;2022-07-22T11:41:28;11.68;;;8.82;;
17065;SDS011;23120;52.336;21.182;2022-07-22T11:43:56;10.50;;;8.82;;
17065;SDS011;23120;52.336;21.182;2022-07-22T11:46:24;11.07;;;8.77;;
17065;SDS011;23120;52.336;21.182;2022-07-22T11:48:53;11.05;;;9.38;;
17065;SDS011;23120;52.336;21.182;2022-07-22T11:51:23;9.13;;;8.23;;
17065;SDS011;23120;52.336;21.182;2022-07-22T11:53:57;10.68;;;8.93;;
17065;SDS011;23120;52.336;21.182;2022-07-22T11:56:42;34.33;;;10.45;;
17065;SDS011;23120;52.336;21.182;2022-07-22T11:59:24;37.50;;;10.60;;
17065;SDS011;23120;52.336;21.182;2022-07-22T12:01:53;21.90;;;9.40;;
17065;SDS011;23120;52.336;21.182;2022-07-22T12:04:37;18.85;;;9.43;;
17065;SDS011;23120;52.336;21.182;2022-07-22T12:07:05;11.13;;;8.80;;
17065;SDS011;23120;52.336;21.182;2022-07-22T12:09:42;13.88;;;9.57;;
17065;SDS011;23120;52.336;21.182;2022-07-22T12:12:11;12.13;;;9.32;;
17065;SDS011;23120;52.336;21.182;2022-07-22T12:14:44;12.00;;;9.60;;
17065;SDS011;23120;52.336;21.182;2022-07-22T12:17:11;12.55;;;9.50;;
17065;SDS011;23120;52.336;21.182;2022-07-22T12:19:40;14.68;;;9.63;;
17065;SDS011;23120;52.336;21.182;2022-07-22T12:22:07;12.45;;;9.00;;
17065;SDS011;23120;52.336;21.182;2022-07-22T12:24:38;16.13;;;9.18;;
17065;SDS011;23120;52.336;21.182;2022-07-22T12:27:07;13.77;;;9.23;;
17065;SDS011;23120;52.336;21.182;2022-07-22T12:29:43;14.05;;;9.02;;
17065;SDS011;23120;52.336;21.182;2022-07-22T12:32:27;10.63;;;8.85;;
17065;SDS011;23120;52.336;21.182;2022-07-22T12:35:14;11.23;;;10.02;;
17065;SDS011;23120;52.336;21.182;2022-07-22T12:37:54;11.65;;;9.60;;
17065;SDS011;23120;52.336;21.182;2022-07-22T12:40:24;13.05;;;9.52;;
17065;SDS011;23120;52.336;21.182;2022-07-22T12:42:59;12.20;;;9.05;;
17065;SDS011;23120;52.336;21.182;2022-07-22T12:45:36;11.23;;;9.30;;
17065;SDS011;23120;52.336;21.182;2022-07-22T12:48:10;21.30;;;10.20;;
17065;SDS011;23120;52.336;21.182;2022-07-22T12:51:05;21.88;;;12.52;;
17065;SDS011;23120;52.336;21.182;2022-07-22T12:53:51;13.88;;;11.63;;
17065;SDS011;23120;52.336;21.182;2022-07-22T12:56:24;13.90;;;11.07;;
17065;SDS011;23120;52.336;21.182;2022-07-22T12:58:51;19.20;;;9.65;;
17065;SDS011;23120;52.336;21.182;2022-07-22T13:01:19;16.55;;;10.13;;
17065;SDS011;23120;52.336;21.182;2022-07-22T13:03:46;11.77;;;10.27;;
17065;SDS011;23120;52.336;21.182;2022-07-22T13:06:12;11.43;;;10.32;;
17065;SDS011;23120;52.336;21.182;2022-07-22T13:08:40;14.95;;;10.77;;
17065;SDS011;23120;52.336;21.182;2022-07-22T13:11:07;19.83;;;12.38;;
17065;SDS011;23120;52.336;21.182;2022-07-22T13:13:34;21.02;;;11.13;;
17065;SDS011;23120;52.336;21.182;2022-07-22T13:16:01;19.77;;;9.88;;
17065;SDS011;23120;52.336;21.182;2022-07-22T13:18:29;14.52;;;10.52;;
17065;SDS011;23120;52.336;21.182;2022-07-22T13:20:56;13.55;;;9.13;;
17065;SDS011;23120;52.336;21.182;2022-07-22T13:23:23;10.05;;;8.32;;
17065;SDS011;23120;52.336;21.182;2022-07-22T13:25:50;12.30;;;8.35;;
17065;SDS011;23120;52.336;21.182;2022-07-22T13:28:17;9.98;;;8.68;;
17065;SDS011;23120;52.336;21.182;2022-07-22T13:30:44;23.45;;;9.18;;
17065;SDS011;23120;52.336;21.182;2022-07-22T13:33:11;45.25;;;12.57;;
17065;SDS011;23120;52.336;21.182;2022-07-22T13:35:42;25.55;;;11.73;;
17065;SDS011;23120;52.336;21.182;2022-07-22T13:38:09;28.33;;;11.60;;
17065;SDS011;23120;52.336;21.182;2022-07-22T13:40:36;16.92;;;10.85;;
17065;SDS011;23120;52.336;21.182;2022-07-22T13:43:03;18.65;;;16.83;;
17065;SDS011;23120;52.336;21.182;2022-07-22T13:45:30;19.95;;;14.23;;
17065;SDS011;23120;52.336;21.182;2022-07-22T13:47:57;10.98;;;10.07;;
17065;SDS011;23120;52.336;21.182;2022-07-22T13:50:24;21.42;;;9.88;;
17065;SDS011;23120;52.336;21.182;2022-07-22T13:52:52;18.67;;;8.75;;
17065;SDS011;23120;52.336;21.182;2022-07-22T13:55:19;12.27;;;8.57;;
17065;SDS011;23120;52.336;21.182;2022-07-22T13:57:46;16.45;;;8.82;;
17065;SDS011;23120;52.336;21.182;2022-07-22T14:00:14;17.42;;;7.70;;
17065;SDS011;23120;52.336;21.182;2022-07-22T14:02:42;15.35;;;7.90;;
17065;SDS011;23120;52.336;21.182;2022-07-22T14:05:10;12.10;;;7.70;;
17065;SDS011;23120;52.336;21.182;2022-07-22T14:07:37;9.02;;;7.25;;
17065;SDS011;23120;52.336;21.182;2022-07-22T14:10:07;11.40;;;7.82;;
17065;SDS011;23120;52.336;21.182;2022-07-22T14:12:35;9.25;;;7.78;;
17065;SDS011;23120;52.336;21.182;2022-07-22T14:15:02;12.50;;;7.57;;
17065;SDS011;23120;52.336;21.182;2022-07-22T14:17:29;13.75;;;8.77;;
17065;SDS011;23120;52.336;21.182;2022-07-22T14:19:56;10.05;;;9.02;;
17065;SDS011;23120;52.336;21.182;2022-07-22T14:22:24;10.82;;;8.48;;
17065;SDS011;23120;52.336;21.182;2022-07-22T14:24:51;23.05;;;9.10;;
17065;SDS011;23120;52.336;21.182;2022-07-22T14:27:19;27.48;;;9.00;;
17065;SDS011;23120;52.336;21.182;2022-07-22T14:29:46;32.78;;;10.00;;
17065;SDS011;23120;52.336;21.182;2022-07-22T14:32:13;14.13;;;8.02;;
17065;SDS011;23120;52.336;21.182;2022-07-22T14:34:40;12.25;;;8.13;;
17065;SDS011;23120;52.336;21.182;2022-07-22T14:37:07;10.65;;;7.60;;
17065;SDS011;23120;52.336;21.182;2022-07-22T14:39:35;12.07;;;7.50;;
17065;SDS011;23120;52.336;21.182;2022-07-22T14:42:02;11.82;;;8.25;;
17065;SDS011;23120;52.336;21.182;2022-07-22T14:44:30;10.55;;;7.68;;
17065;SDS011;23120;52.336;21.182;2022-07-22T14:46:57;17.60;;;8.70;;